createdAt,value
2022-11-06T00:01:12.194Z,57.10
2022-11-06T00:03:39.529Z,55.70
2022-11-06T00:06:29.935Z,58.80
2022-11-06T00:08:59.257Z,52.60
2022-11-06T00:11:26.073Z,39.80
2022-11-06T00:13:52.580Z,39.20
2022-11-06T00:16:19.921Z,43.10
2022-11-06T00:18:47.162Z,40.80
2022-11-06T00:21:22.399Z,35.00
2022-11-06T00:23:50.544Z,44.10
2022-11-06T00:26:20.093Z,41.10
2022-11-06T00:28:47.658Z,37.40
2022-11-06T00:31:17.158Z,34.90
2022-11-06T00:33:44.075Z,36.60
2022-11-06T00:36:15.045Z,36.10
2022-11-06T00:38:41.981Z,32.70
2022-11-06T00:41:11.263Z,29.70
2022-11-06T00:43:38.529Z,28.10
2022-11-06T00:46:13.346Z,31.80
2022-11-06T00:48:41.039Z,30.20
2022-11-06T00:51:10.848Z,33.10
2022-11-06T00:53:37.634Z,34.90
2022-11-06T00:56:13.563Z,34.20
2022-11-06T00:58:40.473Z,34.30
2022-11-06T01:01:28.344Z,36.90
2022-11-06T01:03:57.911Z,34.80
2022-11-06T01:06:28.542Z,41.40
2022-11-06T01:08:56.313Z,42.00
2022-11-06T01:11:25.528Z,47.40
2022-11-06T01:13:54.652Z,45.00
2022-11-06T01:16:22.176Z,34.90
2022-11-06T01:18:50.234Z,40.40
2022-11-06T01:21:28.900Z,36.80
2022-11-06T01:24:01.267Z,47.90
2022-11-06T01:26:38.446Z,39.80
2022-11-06T01:29:08.782Z,41.10
2022-11-06T01:31:35.919Z,38.40
2022-11-06T01:34:03.247Z,37.00
2022-11-06T01:36:30.516Z,34.10
2022-11-06T01:39:00.005Z,34.70
2022-11-06T01:41:32.793Z,32.90
2022-11-06T01:44:04.300Z,35.20
2022-11-06T01:46:36.295Z,33.10
2022-11-06T01:49:10.040Z,31.70
2022-11-06T01:51:41.460Z,34.40
2022-11-06T01:54:09.312Z,40.20
2022-11-06T01:56:37.219Z,34.70
2022-11-06T01:59:05.861Z,44.40
2022-11-06T02:01:33.269Z,48.40
2022-11-06T02:04:15.132Z,43.40
2022-11-06T02:06:41.853Z,42.70
2022-11-06T02:09:10.867Z,38.90
2022-11-06T02:11:42.661Z,38.50
2022-11-06T02:14:19.190Z,37.00
2022-11-06T02:16:54.130Z,35.40
2022-11-06T02:19:39.916Z,38.50
2022-11-06T02:27:26.587Z,36.20
2022-11-06T02:30:02.006Z,30.50
2022-11-06T02:32:28.437Z,31.20
2022-11-06T02:34:58.455Z,28.50
2022-11-06T02:37:29.745Z,28.70
2022-11-06T02:39:59.748Z,29.40
2022-11-06T02:42:29.054Z,29.70
2022-11-06T02:44:57.586Z,33.60
2022-11-06T02:47:29.421Z,29.00
2022-11-06T02:50:05.370Z,26.00
2022-11-06T02:52:40.049Z,30.50
2022-11-06T02:55:17.270Z,30.20
2022-11-06T02:57:51.392Z,33.10
2022-11-06T03:00:18.602Z,30.90
2022-11-06T03:02:52.954Z,26.80
2022-11-06T03:05:27.241Z,29.20
2022-11-06T03:08:03.708Z,27.30
2022-11-06T03:10:39.175Z,25.50
2022-11-06T03:13:35.220Z,28.00
2022-11-06T03:16:13.697Z,33.10
2022-11-06T03:18:54.058Z,31.30
2022-11-06T03:21:37.961Z,27.00
2022-11-06T03:24:13.625Z,25.50
2022-11-06T03:26:45.507Z,27.50
2022-11-06T03:29:15.988Z,24.40
2022-11-06T03:31:58.478Z,24.30
2022-11-06T03:35:00.312Z,33.30
2022-11-06T03:37:34.157Z,26.20
2022-11-06T03:40:05.574Z,25.10
2022-11-06T03:42:32.216Z,24.00
2022-11-06T03:45:12.703Z,30.80
2022-11-06T03:47:59.568Z,29.70
2022-11-06T03:50:38.833Z,31.70
2022-11-06T03:53:12.793Z,30.80
2022-11-06T03:55:46.125Z,30.80
2022-11-06T03:58:20.310Z,29.00
2022-11-06T04:00:48.343Z,28.90
2022-11-06T04:03:35.332Z,25.90
2022-11-06T04:06:13.338Z,25.40
2022-11-06T04:08:59.416Z,24.50
2022-11-06T04:11:47.847Z,24.60
2022-11-06T04:14:16.265Z,23.40
2022-11-06T04:16:51.437Z,28.10
2022-11-06T04:19:20.221Z,26.30
2022-11-06T04:22:08.567Z,26.20
2022-11-06T04:25:13.602Z,25.40
2022-11-06T04:27:55.128Z,22.50
2022-11-06T04:30:22.396Z,22.00
2022-11-06T04:33:15.797Z,22.90
2022-11-06T04:36:00.650Z,21.50
2022-11-06T04:38:50.868Z,23.20
2022-11-06T04:41:40.131Z,22.80
2022-11-06T04:44:18.846Z,29.30
2022-11-06T04:46:52.024Z,30.00
2022-11-06T04:49:20.774Z,21.20
2022-11-06T04:51:48.448Z,25.50
2022-11-06T04:54:15.627Z,18.30
2022-11-06T04:56:46.090Z,16.60
2022-11-06T04:59:16.936Z,19.80
2022-11-06T05:01:44.517Z,17.00
2022-11-06T05:04:12.145Z,19.00
2022-11-06T05:06:38.580Z,19.20
2022-11-06T05:09:04.995Z,16.60
2022-11-06T05:11:31.871Z,18.90
2022-11-06T05:13:58.325Z,20.80
2022-11-06T05:16:25.000Z,17.30
2022-11-06T05:18:51.472Z,20.30
2022-11-06T05:21:36.616Z,18.20
2022-11-06T05:24:04.067Z,19.50
2022-11-06T05:26:30.713Z,19.70
2022-11-06T05:28:57.344Z,18.40
2022-11-06T05:31:25.288Z,16.70
2022-11-06T05:33:51.809Z,17.60
2022-11-06T05:36:18.383Z,17.60
2022-11-06T05:38:44.810Z,17.10
2022-11-06T05:41:11.257Z,16.00
2022-11-06T05:43:37.993Z,18.10
2022-11-06T05:46:05.042Z,16.90
2022-11-06T05:48:31.471Z,18.70
2022-11-06T05:51:03.602Z,16.50
2022-11-06T05:53:31.452Z,18.00
2022-11-06T05:55:58.077Z,20.40
2022-11-06T05:58:25.048Z,17.30
2022-11-06T06:00:51.453Z,15.90
2022-11-06T06:03:17.962Z,19.20
2022-11-06T06:05:44.395Z,17.60
2022-11-06T06:08:11.031Z,17.30
2022-11-06T06:10:45.006Z,17.00
2022-11-06T06:13:12.810Z,16.50
2022-11-06T06:15:40.473Z,16.40
2022-11-06T06:18:08.546Z,15.30
2022-11-06T06:20:35.491Z,15.90
2022-11-06T06:23:02.847Z,18.20
2022-11-06T06:25:29.937Z,15.20
2022-11-06T06:27:57.556Z,15.80
2022-11-06T06:30:24.688Z,16.70
2022-11-06T06:32:51.736Z,15.90
2022-11-06T06:35:18.286Z,22.20
2022-11-06T06:37:53.759Z,15.70
2022-11-06T06:40:21.277Z,17.80
2022-11-06T06:42:47.691Z,14.80
2022-11-06T06:45:14.192Z,16.20
2022-11-06T06:47:40.912Z,15.60
2022-11-06T06:50:08.057Z,17.80
2022-11-06T06:52:34.517Z,16.70
2022-11-06T06:55:01.028Z,25.10
2022-11-06T06:57:27.410Z,17.20
2022-11-06T07:02:20.419Z,16.80
2022-11-06T07:04:46.962Z,18.40
2022-11-06T07:07:13.503Z,16.40
2022-11-06T07:09:39.887Z,16.70
2022-11-06T07:12:06.611Z,18.30
2022-11-06T07:14:33.075Z,16.80
2022-11-06T07:16:59.572Z,18.90
2022-11-06T07:19:25.992Z,17.70
2022-11-06T07:21:53.179Z,20.80
2022-11-06T07:24:20.539Z,20.80
2022-11-06T07:26:46.969Z,23.60
2022-11-06T07:29:13.953Z,20.80
2022-11-06T07:31:40.416Z,22.30
2022-11-06T07:34:06.938Z,22.10
2022-11-06T07:36:34.804Z,23.20
2022-11-06T07:39:01.443Z,23.20
2022-11-06T07:41:27.978Z,21.60
2022-11-06T07:43:54.413Z,24.70
2022-11-06T07:46:20.848Z,22.90
2022-11-06T07:48:48.102Z,23.70
2022-11-06T07:51:14.839Z,21.50
2022-11-06T07:53:43.350Z,19.90
2022-11-06T07:56:10.221Z,26.80
2022-11-06T07:58:37.213Z,27.90
2022-11-06T08:01:04.256Z,25.00
2022-11-06T08:03:31.422Z,22.60
2022-11-06T08:05:58.953Z,20.70
2022-11-06T08:08:27.556Z,17.80
2022-11-06T08:10:54.502Z,20.40
2022-11-06T08:13:21.041Z,20.80
2022-11-06T08:15:47.587Z,24.00
2022-11-06T08:18:14.318Z,20.80
2022-11-06T08:20:41.061Z,20.20
2022-11-06T08:23:10.469Z,18.20
2022-11-06T08:25:37.667Z,24.40
2022-11-06T08:28:05.025Z,19.10
2022-11-06T08:30:31.932Z,20.00
2022-11-06T08:33:04.820Z,18.80
2022-11-06T08:35:31.547Z,20.70
2022-11-06T08:37:57.971Z,17.60
2022-11-06T08:43:02.102Z,22.40
2022-11-06T08:45:29.253Z,20.60
2022-11-06T08:48:01.379Z,19.50
2022-11-06T08:50:29.107Z,28.30
2022-11-06T08:52:57.362Z,19.90
2022-11-06T08:55:23.899Z,19.50
2022-11-06T08:57:50.335Z,22.40
2022-11-06T09:00:16.866Z,17.70
2022-11-06T09:02:43.301Z,26.40
2022-11-06T09:07:36.244Z,22.30
2022-11-06T09:12:29.389Z,21.20
2022-11-06T09:14:55.810Z,22.20
2022-11-06T09:19:51.103Z,21.70
2022-11-06T09:22:18.051Z,20.80
2022-11-06T09:25:02.687Z,20.10
2022-11-06T09:27:30.457Z,22.50
2022-11-06T09:29:57.258Z,23.20
2022-11-06T09:32:24.162Z,27.20
2022-11-06T09:34:51.005Z,22.70
2022-11-06T09:37:17.382Z,17.20
2022-11-06T09:42:21.183Z,20.00
2022-11-06T09:45:07.517Z,18.40
2022-11-06T09:47:40.764Z,18.30
2022-11-06T09:50:17.074Z,19.20
2022-11-06T09:52:50.263Z,18.40
2022-11-06T09:55:21.941Z,15.70
2022-11-06T09:58:13.977Z,18.60
2022-11-06T10:00:41.130Z,18.20
2022-11-06T10:03:18.035Z,16.70
2022-11-06T10:05:46.881Z,19.90
2022-11-06T10:08:21.858Z,17.50
2022-11-06T10:11:01.912Z,12.70
2022-11-06T10:14:07.634Z,14.50
2022-11-06T10:16:45.839Z,15.70
2022-11-06T10:19:31.149Z,14.00
2022-11-06T10:22:06.859Z,13.30
2022-11-06T10:25:12.289Z,17.70
2022-11-06T10:27:46.921Z,18.70
2022-11-06T10:30:16.928Z,18.80
2022-11-06T10:33:35.070Z,23.70
2022-11-06T10:36:01.559Z,20.40
2022-11-06T10:38:35.386Z,12.40
2022-11-06T10:41:01.928Z,12.50
2022-11-06T10:43:43.352Z,15.00
2022-11-06T10:46:29.286Z,26.80
2022-11-06T10:49:01.773Z,16.10
2022-11-06T10:51:47.045Z,13.90
2022-11-06T10:54:32.473Z,15.30
2022-11-06T10:57:08.384Z,17.90
2022-11-06T10:59:35.227Z,14.90
2022-11-06T11:02:03.321Z,17.70
2022-11-06T11:04:31.984Z,11.90
2022-11-06T11:07:21.419Z,16.00
2022-11-06T11:09:50.877Z,11.60
2022-11-06T11:12:32.317Z,11.70
2022-11-06T11:15:04.877Z,12.50
2022-11-06T11:17:31.303Z,14.80
2022-11-06T11:19:57.798Z,15.20
2022-11-06T11:22:27.655Z,12.30
2022-11-06T11:25:08.432Z,12.50
2022-11-06T11:27:45.879Z,15.00
2022-11-06T11:30:38.469Z,15.10
2022-11-06T11:33:12.880Z,15.20
2022-11-06T11:35:39.687Z,12.60
2022-11-06T11:38:12.841Z,20.00
2022-11-06T11:40:40.209Z,12.90
2022-11-06T11:43:26.405Z,17.50
2022-11-06T11:46:03.144Z,13.20
2022-11-06T11:48:52.096Z,17.10
2022-11-06T11:51:36.239Z,49.00
2022-11-06T11:54:12.032Z,17.90
2022-11-06T11:57:04.198Z,14.00
2022-11-06T11:59:54.550Z,13.80
2022-11-06T12:02:27.941Z,11.70
2022-11-06T12:05:17.487Z,12.40
2022-11-06T12:07:49.328Z,16.50
2022-11-06T12:10:26.878Z,11.30
2022-11-06T12:12:55.152Z,14.10
2022-11-06T12:15:26.689Z,12.60
2022-11-06T12:18:05.207Z,16.20
2022-11-06T12:20:40.104Z,11.90
2022-11-06T12:23:14.349Z,13.20
2022-11-06T12:25:44.665Z,13.70
2022-11-06T12:28:17.973Z,16.30
2022-11-06T12:30:51.081Z,11.70
2022-11-06T12:33:24.622Z,12.10
2022-11-06T12:36:03.288Z,13.10
2022-11-06T12:38:40.689Z,11.30
2022-11-06T12:41:21.309Z,14.40
2022-11-06T12:43:50.683Z,14.70
2022-11-06T12:46:29.043Z,12.70
2022-11-06T12:49:01.597Z,13.00
2022-11-06T12:51:46.933Z,11.90
2022-11-06T12:54:41.400Z,16.70
2022-11-06T12:57:25.751Z,12.50
2022-11-06T13:00:05.936Z,14.00
2022-11-06T13:03:07.743Z,13.20
2022-11-06T13:06:03.300Z,12.20
2022-11-06T13:11:08.360Z,11.50
2022-11-06T13:13:44.728Z,13.20
2022-11-06T13:16:41.171Z,11.30
2022-11-06T13:19:32.870Z,12.10
2022-11-06T13:22:09.628Z,14.60
2022-11-06T13:25:03.568Z,11.10
2022-11-06T13:27:36.174Z,13.70
2022-11-06T13:30:15.381Z,11.30
2022-11-06T13:32:48.520Z,13.20
2022-11-06T13:35:21.209Z,14.50
2022-11-06T13:37:50.663Z,16.20
2022-11-06T13:40:23.263Z,19.10
2022-11-06T13:43:05.836Z,19.80
2022-11-06T13:45:43.092Z,24.40
2022-11-06T13:48:23.609Z,14.60
2022-11-06T13:51:15.679Z,22.20
2022-11-06T13:54:03.892Z,23.00
2022-11-06T13:56:42.479Z,16.20
2022-11-06T13:59:32.787Z,13.90
2022-11-06T14:02:15.784Z,17.90
2022-11-06T14:04:53.932Z,18.10
2022-11-06T14:07:22.296Z,14.90
2022-11-06T14:09:48.995Z,11.20
2022-11-06T14:12:21.284Z,18.20
2022-11-06T14:14:48.972Z,20.20
2022-11-06T14:17:15.320Z,18.30
2022-11-06T14:20:02.092Z,21.80
2022-11-06T14:22:36.842Z,29.30
2022-11-06T14:25:28.471Z,24.30
2022-11-06T14:27:54.846Z,22.20
2022-11-06T14:30:57.646Z,16.30
2022-11-06T14:33:42.539Z,19.80
2022-11-06T14:36:25.620Z,20.40
2022-11-06T14:38:53.331Z,22.40
2022-11-06T14:41:35.128Z,29.50
2022-11-06T14:44:13.510Z,22.60
2022-11-06T14:46:49.745Z,18.50
2022-11-06T14:49:38.226Z,21.80
2022-11-06T14:52:08.583Z,25.90
2022-11-06T14:54:39.895Z,21.30
2022-11-06T14:57:08.639Z,26.40
2022-11-06T14:59:41.060Z,25.50
2022-11-06T15:02:18.669Z,41.80
2022-11-06T15:04:51.954Z,29.70
2022-11-06T15:08:03.298Z,38.70
2022-11-06T15:10:58.889Z,36.90
2022-11-06T15:13:26.903Z,27.00
2022-11-06T15:16:02.899Z,27.70
2022-11-06T15:21:03.403Z,24.20
2022-11-06T15:23:41.588Z,22.90
2022-11-06T15:26:35.468Z,30.50
2022-11-06T15:29:21.413Z,35.20
2022-11-06T15:31:51.836Z,35.80
2022-11-06T15:35:07.833Z,48.70
2022-11-06T15:37:46.729Z,38.00
2022-11-06T15:40:31.878Z,38.90
2022-11-06T15:43:05.278Z,43.40
2022-11-06T15:45:31.989Z,35.10
2022-11-06T15:48:02.429Z,113.10
2022-11-06T15:50:34.663Z,142.70
2022-11-06T15:53:14.335Z,106.30
2022-11-06T15:56:04.611Z,57.30
2022-11-06T15:58:34.516Z,64.70
2022-11-06T16:01:03.289Z,90.30
2022-11-06T16:03:32.232Z,105.00
2022-11-06T16:06:03.317Z,122.30
2022-11-06T16:08:31.609Z,92.20
2022-11-06T16:10:59.527Z,60.70
2022-11-06T16:13:27.455Z,62.80
2022-11-06T16:16:00.566Z,62.80
2022-11-06T16:18:33.034Z,43.00
2022-11-06T16:21:08.660Z,39.30
2022-11-06T16:23:48.041Z,62.80
2022-11-06T16:26:35.783Z,66.30
2022-11-06T16:29:15.735Z,42.60
2022-11-06T16:31:43.147Z,32.80
2022-11-06T16:34:34.842Z,26.20
2022-11-06T16:37:05.065Z,24.00
2022-11-06T16:40:01.025Z,24.60
2022-11-06T16:42:38.357Z,18.10
2022-11-06T16:45:07.590Z,23.30
2022-11-06T16:47:34.219Z,27.40
2022-11-06T16:50:01.595Z,34.50
2022-11-06T16:52:32.456Z,35.40
2022-11-06T16:55:03.575Z,48.50
2022-11-06T16:57:57.540Z,50.90
2022-11-06T17:00:31.269Z,54.50
2022-11-06T17:03:05.089Z,57.00
2022-11-06T17:05:36.365Z,70.10
2022-11-06T17:08:17.931Z,104.90
2022-11-06T17:10:51.855Z,189.60
2022-11-06T17:13:21.062Z,122.00
2022-11-06T17:15:54.693Z,93.20
2022-11-06T17:18:24.922Z,96.40
2022-11-06T17:20:57.173Z,116.30
2022-11-06T17:23:25.824Z,130.10
2022-11-06T17:25:56.142Z,127.70
2022-11-06T17:28:22.643Z,134.10
2022-11-06T17:30:49.480Z,117.10
2022-11-06T17:33:16.237Z,132.00
2022-11-06T17:35:43.098Z,132.90
2022-11-06T17:38:13.237Z,144.00
2022-11-06T17:40:40.999Z,142.10
2022-11-06T17:43:07.859Z,137.30
2022-11-06T17:45:34.331Z,143.20
2022-11-06T17:48:00.765Z,149.30
2022-11-06T17:50:27.356Z,151.10
2022-11-06T17:52:53.867Z,211.10
2022-11-06T17:55:20.402Z,163.20
2022-11-06T17:57:46.858Z,214.60
2022-11-06T18:00:13.873Z,196.40
2022-11-06T18:03:00.386Z,187.30
2022-11-06T18:05:27.612Z,212.60
2022-11-06T18:07:54.047Z,191.70
2022-11-06T18:12:50.681Z,228.50
2022-11-06T18:15:17.650Z,239.10
2022-11-06T18:17:44.083Z,425.10
2022-11-06T18:22:37.564Z,246.60
2022-11-06T18:25:04.722Z,231.80
2022-11-06T18:27:31.251Z,180.80
2022-11-06T18:29:57.687Z,215.80
2022-11-06T18:34:50.400Z,218.10
2022-11-06T18:39:43.269Z,186.70
2022-11-06T18:42:09.853Z,182.90
2022-11-06T18:44:40.658Z,231.00
2022-11-06T18:47:07.202Z,230.80
2022-11-06T18:49:33.868Z,188.30
2022-11-06T18:52:00.317Z,146.40
2022-11-06T18:56:55.215Z,145.40
2022-11-06T18:59:23.153Z,140.40
2022-11-06T19:01:49.841Z,117.40
2022-11-06T19:04:16.912Z,98.30
2022-11-06T19:06:43.510Z,100.00
2022-11-06T19:09:10.047Z,127.40
2022-11-06T19:11:36.509Z,111.10
2022-11-06T19:14:03.172Z,105.20
2022-11-06T19:16:29.594Z,265.50
2022-11-06T19:21:31.080Z,195.20
2022-11-06T19:24:04.603Z,287.70
2022-11-06T19:26:34.647Z,221.90
2022-11-06T19:29:01.371Z,204.80
2022-11-06T19:31:29.685Z,144.90
2022-11-06T19:34:01.243Z,156.30
2022-11-06T19:36:28.939Z,134.60
2022-11-06T19:38:57.777Z,162.30
2022-11-06T19:41:26.134Z,145.80
2022-11-06T19:43:52.576Z,116.80
2022-11-06T19:46:24.159Z,155.90
2022-11-06T19:48:52.469Z,217.30
2022-11-06T19:51:18.997Z,168.30
2022-11-06T19:53:45.474Z,126.70
2022-11-06T19:56:15.812Z,114.40
2022-11-06T19:58:42.347Z,108.10
2022-11-06T20:01:14.777Z,147.30
2022-11-06T20:03:42.233Z,184.10
2022-11-06T20:06:09.944Z,194.00
2022-11-06T20:08:38.116Z,182.80
2022-11-06T20:11:13.610Z,145.50
2022-11-06T20:13:45.723Z,120.10
2022-11-06T20:16:18.919Z,150.40
2022-11-06T20:18:57.267Z,111.20
2022-11-06T20:21:28.511Z,113.10
2022-11-06T20:23:56.696Z,121.20
2022-11-06T20:26:24.691Z,103.90
2022-11-06T20:28:51.578Z,108.20
2022-11-06T20:31:18.968Z,124.50
2022-11-06T20:33:45.780Z,94.50
2022-11-06T20:36:18.741Z,99.50
2022-11-06T20:38:45.837Z,92.40
2022-11-06T20:41:13.924Z,76.30
2022-11-06T20:43:41.432Z,104.40
2022-11-06T20:46:09.512Z,117.20
2022-11-06T20:48:36.558Z,105.80
2022-11-06T20:51:10.196Z,92.80
2022-11-06T20:53:36.799Z,80.50
2022-11-06T20:56:05.780Z,81.70
2022-11-06T20:58:33.101Z,69.20
2022-11-06T21:01:08.026Z,75.20
2022-11-06T21:03:34.615Z,83.50
2022-11-06T21:06:01.566Z,88.40
2022-11-06T21:08:28.610Z,129.70
2022-11-06T21:11:05.771Z,140.30
2022-11-06T21:13:33.952Z,136.10
2022-11-06T21:16:04.332Z,139.10
2022-11-06T21:18:33.625Z,138.10
2022-11-06T21:21:03.195Z,124.50
2022-11-06T21:23:29.741Z,144.10
2022-11-06T21:25:56.176Z,140.60
2022-11-06T21:28:22.928Z,154.50
2022-11-06T21:30:49.454Z,127.10
2022-11-06T21:33:16.381Z,137.60
2022-11-06T21:35:43.446Z,132.50
2022-11-06T21:38:09.897Z,133.50
2022-11-06T21:40:38.890Z,112.40
2022-11-06T21:43:05.719Z,114.20
2022-11-06T21:45:32.485Z,118.20
2022-11-06T21:47:59.045Z,117.10
2022-11-06T21:50:29.876Z,137.30
2022-11-06T21:53:15.580Z,212.90
2022-11-06T21:56:00.158Z,120.90
2022-11-06T21:58:27.228Z,113.80
2022-11-06T22:00:53.662Z,98.80
2022-11-06T22:03:20.300Z,91.50
2022-11-06T22:05:46.679Z,88.80
2022-11-06T22:10:40.319Z,76.60
2022-11-06T22:13:06.747Z,72.70
2022-11-06T22:17:59.603Z,66.10
2022-11-06T22:20:26.266Z,62.00
2022-11-06T22:22:52.794Z,58.50
2022-11-06T22:25:19.193Z,64.70
2022-11-06T22:27:45.662Z,111.30
2022-11-06T22:30:12.615Z,104.40
2022-11-06T22:32:39.247Z,146.70
2022-11-06T22:35:05.889Z,133.80
2022-11-06T22:37:32.421Z,114.90
2022-11-06T22:39:58.840Z,150.10
2022-11-06T22:42:25.289Z,100.70
2022-11-06T22:44:52.337Z,92.80
2022-11-06T22:47:18.879Z,104.30
2022-11-06T22:49:45.326Z,99.60
2022-11-06T22:52:11.728Z,118.40
2022-11-06T22:54:38.385Z,136.90
2022-11-06T22:57:05.019Z,124.80
2022-11-06T22:59:31.387Z,274.90
2022-11-06T23:04:24.832Z,161.30
2022-11-06T23:06:51.362Z,128.80
2022-11-06T23:09:17.804Z,144.80
2022-11-06T23:11:46.376Z,134.70
2022-11-06T23:14:13.024Z,116.60
2022-11-06T23:16:58.385Z,125.90
2022-11-06T23:19:26.565Z,130.50
2022-11-06T23:22:13.220Z,144.20
2022-11-06T23:24:39.769Z,151.50
2022-11-06T23:27:06.204Z,128.30
2022-11-06T23:29:32.691Z,124.40
2022-11-06T23:31:59.127Z,128.50
2022-11-06T23:34:25.868Z,117.70
2022-11-06T23:36:52.275Z,127.60
2022-11-06T23:39:18.837Z,124.50
2022-11-06T23:41:45.483Z,125.60
2022-11-06T23:44:33.121Z,135.60
2022-11-06T23:47:00.218Z,115.30
2022-11-06T23:49:26.689Z,118.10
2022-11-06T23:51:53.430Z,123.70
2022-11-06T23:54:20.071Z,131.20
2022-11-06T23:56:46.512Z,125.10
2022-11-06T23:59:13.040Z,438.00
